sensor_id;sensor_type;location;lat;lon;timestamp;P1;durP1;ratioP1;P2;durP2;ratioP2
8532;SDS011;4304;53.876;10.662;2023-09-08T00:00:44;5.70;;;2.97;;
8532;SDS011;4304;53.876;10.662;2023-09-08T00:03:09;8.45;;;2.97;;
8532;SDS011;4304;53.876;10.662;2023-09-08T00:05:35;9.00;;;2.65;;
8532;SDS011;4304;53.876;10.662;2023-09-08T00:08:00;6.45;;;3.20;;
8532;SDS011;4304;53.876;10.662;2023-09-08T00:10:25;6.00;;;3.00;;
8532;SDS011;4304;53.876;10.662;2023-09-08T00:12:51;5.22;;;2.80;;
8532;SDS011;4304;53.876;10.662;2023-09-08T00:15:16;4.75;;;2.72;;
8532;SDS011;4304;53.876;10.662;2023-09-08T00:17:41;10.20;;;3.55;;
8532;SDS011;4304;53.876;10.662;2023-09-08T00:20:07;5.60;;;3.30;;
8532;SDS011;4304;53.876;10.662;2023-09-08T00:22:35;6.70;;;3.30;;
8532;SDS011;4304;53.876;10.662;2023-09-08T00:25:02;5.60;;;3.00;;
8532;SDS011;4304;53.876;10.662;2023-09-08T00:27:29;10.63;;;3.33;;
8532;SDS011;4304;53.876;10.662;2023-09-08T00:29:55;5.75;;;3.45;;
8532;SDS011;4304;53.876;10.662;2023-09-08T00:32:20;12.77;;;3.25;;
8532;SDS011;4304;53.876;10.662;2023-09-08T00:34:46;6.53;;;3.33;;
8532;SDS011;4304;53.876;10.662;2023-09-08T00:37:11;5.65;;;3.22;;
8532;SDS011;4304;53.876;10.662;2023-09-08T00:39:37;8.68;;;3.42;;
8532;SDS011;4304;53.876;10.662;2023-09-08T00:42:03;8.73;;;4.22;;
8532;SDS011;4304;53.876;10.662;2023-09-08T00:44:28;7.50;;;3.92;;
8532;SDS011;4304;53.876;10.662;2023-09-08T00:46:54;8.05;;;4.05;;
8532;SDS011;4304;53.876;10.662;2023-09-08T00:49:19;5.47;;;3.40;;
8532;SDS011;4304;53.876;10.662;2023-09-08T00:51:45;6.15;;;3.40;;
8532;SDS011;4304;53.876;10.662;2023-09-08T00:54:11;5.45;;;2.90;;
8532;SDS011;4304;53.876;10.662;2023-09-08T00:56:36;8.10;;;3.97;;
8532;SDS011;4304;53.876;10.662;2023-09-08T00:59:03;5.28;;;3.30;;
8532;SDS011;4304;53.876;10.662;2023-09-08T01:01:29;5.97;;;3.33;;
8532;SDS011;4304;53.876;10.662;2023-09-08T01:03:55;5.10;;;3.22;;
8532;SDS011;4304;53.876;10.662;2023-09-08T01:06:21;4.60;;;2.55;;
8532;SDS011;4304;53.876;10.662;2023-09-08T01:08:46;6.70;;;3.70;;
8532;SDS011;4304;53.876;10.662;2023-09-08T01:11:12;5.25;;;2.95;;
8532;SDS011;4304;53.876;10.662;2023-09-08T01:13:37;7.28;;;3.38;;
8532;SDS011;4304;53.876;10.662;2023-09-08T01:16:02;7.35;;;3.67;;
8532;SDS011;4304;53.876;10.662;2023-09-08T01:18:28;6.53;;;3.78;;
8532;SDS011;4304;53.876;10.662;2023-09-08T01:23:48;8.13;;;3.92;;
8532;SDS011;4304;53.876;10.662;2023-09-08T01:26:25;6.60;;;3.13;;
8532;SDS011;4304;53.876;10.662;2023-09-08T01:28:54;8.00;;;4.28;;
8532;SDS011;4304;53.876;10.662;2023-09-08T01:31:21;6.80;;;3.83;;
8532;SDS011;4304;53.876;10.662;2023-09-08T01:33:46;5.97;;;3.50;;
8532;SDS011;4304;53.876;10.662;2023-09-08T01:36:12;4.88;;;3.00;;
8532;SDS011;4304;53.876;10.662;2023-09-08T01:38:39;8.80;;;4.15;;
8532;SDS011;4304;53.876;10.662;2023-09-08T01:41:04;6.13;;;3.88;;
8532;SDS011;4304;53.876;10.662;2023-09-08T01:43:29;12.23;;;4.55;;
8532;SDS011;4304;53.876;10.662;2023-09-08T01:45:55;7.97;;;4.10;;
8532;SDS011;4304;53.876;10.662;2023-09-08T01:48:20;5.93;;;3.27;;
8532;SDS011;4304;53.876;10.662;2023-09-08T01:50:46;7.38;;;3.97;;
8532;SDS011;4304;53.876;10.662;2023-09-08T01:53:12;8.40;;;5.00;;
8532;SDS011;4304;53.876;10.662;2023-09-08T01:55:38;6.93;;;3.88;;
8532;SDS011;4304;53.876;10.662;2023-09-08T01:58:03;6.65;;;3.58;;
8532;SDS011;4304;53.876;10.662;2023-09-08T02:00:29;5.70;;;3.22;;
8532;SDS011;4304;53.876;10.662;2023-09-08T02:02:54;6.72;;;3.78;;
8532;SDS011;4304;53.876;10.662;2023-09-08T02:05:19;7.57;;;3.70;;
8532;SDS011;4304;53.876;10.662;2023-09-08T02:07:45;6.10;;;3.55;;
8532;SDS011;4304;53.876;10.662;2023-09-08T02:10:10;5.40;;;2.90;;
8532;SDS011;4304;53.876;10.662;2023-09-08T02:12:36;5.97;;;3.65;;
8532;SDS011;4304;53.876;10.662;2023-09-08T02:15:01;8.73;;;4.32;;
8532;SDS011;4304;53.876;10.662;2023-09-08T02:17:26;5.55;;;3.10;;
8532;SDS011;4304;53.876;10.662;2023-09-08T02:19:51;5.05;;;3.35;;
8532;SDS011;4304;53.876;10.662;2023-09-08T02:22:17;7.03;;;3.65;;
8532;SDS011;4304;53.876;10.662;2023-09-08T02:24:43;6.93;;;3.75;;
8532;SDS011;4304;53.876;10.662;2023-09-08T02:27:08;10.18;;;3.40;;
8532;SDS011;4304;53.876;10.662;2023-09-08T02:29:34;6.53;;;3.65;;
8532;SDS011;4304;53.876;10.662;2023-09-08T02:32:00;6.63;;;3.38;;
8532;SDS011;4304;53.876;10.662;2023-09-08T02:34:25;6.80;;;3.70;;
8532;SDS011;4304;53.876;10.662;2023-09-08T02:36:51;6.28;;;3.78;;
8532;SDS011;4304;53.876;10.662;2023-09-08T02:39:16;6.67;;;3.30;;
8532;SDS011;4304;53.876;10.662;2023-09-08T02:41:41;7.60;;;3.75;;
8532;SDS011;4304;53.876;10.662;2023-09-08T02:44:07;7.22;;;4.03;;
8532;SDS011;4304;53.876;10.662;2023-09-08T02:46:32;8.77;;;4.40;;
8532;SDS011;4304;53.876;10.662;2023-09-08T02:48:57;7.17;;;3.70;;
8532;SDS011;4304;53.876;10.662;2023-09-08T02:51:22;8.67;;;3.93;;
8532;SDS011;4304;53.876;10.662;2023-09-08T02:53:48;5.70;;;3.58;;
8532;SDS011;4304;53.876;10.662;2023-09-08T02:56:13;6.60;;;4.32;;
8532;SDS011;4304;53.876;10.662;2023-09-08T02:58:38;6.55;;;3.85;;
8532;SDS011;4304;53.876;10.662;2023-09-08T03:01:13;6.47;;;4.03;;
8532;SDS011;4304;53.876;10.662;2023-09-08T03:03:40;8.85;;;3.58;;
8532;SDS011;4304;53.876;10.662;2023-09-08T03:06:06;6.03;;;3.20;;
8532;SDS011;4304;53.876;10.662;2023-09-08T03:08:32;6.80;;;4.45;;
8532;SDS011;4304;53.876;10.662;2023-09-08T03:10:58;5.65;;;3.22;;
8532;SDS011;4304;53.876;10.662;2023-09-08T03:13:24;9.13;;;4.55;;
8532;SDS011;4304;53.876;10.662;2023-09-08T03:15:51;6.00;;;3.40;;
8532;SDS011;4304;53.876;10.662;2023-09-08T03:18:17;6.78;;;3.55;;
8532;SDS011;4304;53.876;10.662;2023-09-08T03:20:42;8.80;;;4.30;;
8532;SDS011;4304;53.876;10.662;2023-09-08T03:23:08;8.20;;;4.40;;
8532;SDS011;4304;53.876;10.662;2023-09-08T03:25:34;5.88;;;3.55;;
8532;SDS011;4304;53.876;10.662;2023-09-08T03:27:59;5.78;;;3.35;;
8532;SDS011;4304;53.876;10.662;2023-09-08T03:30:24;7.72;;;4.30;;
8532;SDS011;4304;53.876;10.662;2023-09-08T03:32:50;7.07;;;3.67;;
8532;SDS011;4304;53.876;10.662;2023-09-08T03:35:15;6.75;;;3.60;;
8532;SDS011;4304;53.876;10.662;2023-09-08T03:37:40;6.65;;;3.35;;
8532;SDS011;4304;53.876;10.662;2023-09-08T03:40:06;6.35;;;4.15;;
8532;SDS011;4304;53.876;10.662;2023-09-08T03:42:32;6.70;;;3.55;;
8532;SDS011;4304;53.876;10.662;2023-09-08T03:44:59;8.30;;;3.65;;
8532;SDS011;4304;53.876;10.662;2023-09-08T03:47:25;9.23;;;3.40;;
8532;SDS011;4304;53.876;10.662;2023-09-08T03:49:51;7.00;;;4.13;;
8532;SDS011;4304;53.876;10.662;2023-09-08T03:52:16;6.78;;;3.80;;
8532;SDS011;4304;53.876;10.662;2023-09-08T03:54:41;9.50;;;3.30;;
8532;SDS011;4304;53.876;10.662;2023-09-08T03:57:07;5.38;;;3.28;;
8532;SDS011;4304;53.876;10.662;2023-09-08T03:59:32;5.78;;;3.03;;
8532;SDS011;4304;53.876;10.662;2023-09-08T04:01:57;8.97;;;3.73;;
8532;SDS011;4304;53.876;10.662;2023-09-08T04:04:23;5.82;;;3.67;;
8532;SDS011;4304;53.876;10.662;2023-09-08T04:06:48;6.38;;;3.38;;
8532;SDS011;4304;53.876;10.662;2023-09-08T04:09:14;5.28;;;2.70;;
8532;SDS011;4304;53.876;10.662;2023-09-08T04:11:39;14.48;;;3.70;;
8532;SDS011;4304;53.876;10.662;2023-09-08T04:14:04;8.50;;;3.42;;
8532;SDS011;4304;53.876;10.662;2023-09-08T04:16:30;5.35;;;2.90;;
8532;SDS011;4304;53.876;10.662;2023-09-08T04:18:55;7.13;;;3.95;;
8532;SDS011;4304;53.876;10.662;2023-09-08T04:21:21;7.97;;;3.72;;
8532;SDS011;4304;53.876;10.662;2023-09-08T04:23:47;7.10;;;3.22;;
8532;SDS011;4304;53.876;10.662;2023-09-08T04:26:12;6.97;;;3.85;;
8532;SDS011;4304;53.876;10.662;2023-09-08T04:28:38;6.10;;;2.85;;
8532;SDS011;4304;53.876;10.662;2023-09-08T04:31:03;6.72;;;3.95;;
8532;SDS011;4304;53.876;10.662;2023-09-08T04:33:29;7.53;;;3.08;;
8532;SDS011;4304;53.876;10.662;2023-09-08T04:35:54;8.65;;;3.58;;
8532;SDS011;4304;53.876;10.662;2023-09-08T04:38:20;6.15;;;3.90;;
8532;SDS011;4304;53.876;10.662;2023-09-08T04:40:45;10.05;;;4.78;;
8532;SDS011;4304;53.876;10.662;2023-09-08T04:43:11;10.15;;;5.25;;
8532;SDS011;4304;53.876;10.662;2023-09-08T04:45:37;11.43;;;6.32;;
8532;SDS011;4304;53.876;10.662;2023-09-08T04:48:02;7.07;;;4.47;;
8532;SDS011;4304;53.876;10.662;2023-09-08T04:50:29;10.48;;;4.85;;
8532;SDS011;4304;53.876;10.662;2023-09-08T04:52:54;9.65;;;4.95;;
8532;SDS011;4304;53.876;10.662;2023-09-08T04:55:19;5.57;;;3.47;;
8532;SDS011;4304;53.876;10.662;2023-09-08T04:57:44;8.83;;;5.63;;
8532;SDS011;4304;53.876;10.662;2023-09-08T05:00:10;8.35;;;3.97;;
8532;SDS011;4304;53.876;10.662;2023-09-08T05:02:36;8.85;;;5.00;;
8532;SDS011;4304;53.876;10.662;2023-09-08T05:05:02;6.22;;;3.58;;
8532;SDS011;4304;53.876;10.662;2023-09-08T05:07:27;8.77;;;4.40;;
8532;SDS011;4304;53.876;10.662;2023-09-08T05:09:53;7.33;;;4.20;;
8532;SDS011;4304;53.876;10.662;2023-09-08T05:12:18;8.52;;;4.07;;
8532;SDS011;4304;53.876;10.662;2023-09-08T05:14:43;8.82;;;4.80;;
8532;SDS011;4304;53.876;10.662;2023-09-08T05:17:09;6.88;;;3.70;;
8532;SDS011;4304;53.876;10.662;2023-09-08T05:19:34;8.43;;;5.57;;
8532;SDS011;4304;53.876;10.662;2023-09-08T05:21:59;8.60;;;4.82;;
8532;SDS011;4304;53.876;10.662;2023-09-08T05:24:25;8.07;;;4.95;;
8532;SDS011;4304;53.876;10.662;2023-09-08T05:26:51;13.13;;;4.53;;
8532;SDS011;4304;53.876;10.662;2023-09-08T05:29:17;13.52;;;5.75;;
8532;SDS011;4304;53.876;10.662;2023-09-08T05:31:42;5.90;;;3.65;;
8532;SDS011;4304;53.876;10.662;2023-09-08T05:34:08;9.77;;;4.95;;
8532;SDS011;4304;53.876;10.662;2023-09-08T05:36:33;9.65;;;4.70;;
8532;SDS011;4304;53.876;10.662;2023-09-08T05:39:01;7.82;;;5.30;;
8532;SDS011;4304;53.876;10.662;2023-09-08T05:41:27;8.82;;;4.63;;
8532;SDS011;4304;53.876;10.662;2023-09-08T05:43:53;12.80;;;4.93;;
8532;SDS011;4304;53.876;10.662;2023-09-08T05:46:18;9.80;;;4.55;;
8532;SDS011;4304;53.876;10.662;2023-09-08T05:48:44;9.05;;;5.53;;
8532;SDS011;4304;53.876;10.662;2023-09-08T05:51:10;9.23;;;5.57;;
8532;SDS011;4304;53.876;10.662;2023-09-08T05:53:35;10.73;;;5.18;;
8532;SDS011;4304;53.876;10.662;2023-09-08T05:56:03;9.45;;;4.35;;
8532;SDS011;4304;53.876;10.662;2023-09-08T05:58:28;7.78;;;4.28;;
8532;SDS011;4304;53.876;10.662;2023-09-08T06:00:54;7.82;;;5.55;;
8532;SDS011;4304;53.876;10.662;2023-09-08T06:03:19;8.35;;;4.80;;
8532;SDS011;4304;53.876;10.662;2023-09-08T06:05:45;8.45;;;4.85;;
8532;SDS011;4304;53.876;10.662;2023-09-08T06:08:10;8.32;;;5.35;;
8532;SDS011;4304;53.876;10.662;2023-09-08T06:10:37;9.38;;;5.47;;
8532;SDS011;4304;53.876;10.662;2023-09-08T06:13:02;10.10;;;4.15;;
8532;SDS011;4304;53.876;10.662;2023-09-08T06:15:28;5.38;;;3.10;;
8532;SDS011;4304;53.876;10.662;2023-09-08T06:17:53;8.85;;;5.07;;
8532;SDS011;4304;53.876;10.662;2023-09-08T06:20:19;6.07;;;3.65;;
8532;SDS011;4304;53.876;10.662;2023-09-08T06:22:44;8.18;;;3.92;;
8532;SDS011;4304;53.876;10.662;2023-09-08T06:25:09;7.03;;;4.32;;
8532;SDS011;4304;53.876;10.662;2023-09-08T06:27:35;6.78;;;4.60;;
8532;SDS011;4304;53.876;10.662;2023-09-08T06:30:00;8.02;;;4.55;;
8532;SDS011;4304;53.876;10.662;2023-09-08T06:32:25;6.47;;;3.95;;
8532;SDS011;4304;53.876;10.662;2023-09-08T06:34:51;7.63;;;4.40;;
8532;SDS011;4304;53.876;10.662;2023-09-08T06:37:16;9.32;;;3.80;;
8532;SDS011;4304;53.876;10.662;2023-09-08T06:39:41;8.20;;;4.55;;
8532;SDS011;4304;53.876;10.662;2023-09-08T06:42:07;7.35;;;3.92;;
8532;SDS011;4304;53.876;10.662;2023-09-08T06:44:32;5.93;;;4.10;;
8532;SDS011;4304;53.876;10.662;2023-09-08T06:46:58;8.02;;;4.32;;
8532;SDS011;4304;53.876;10.662;2023-09-08T06:49:23;7.13;;;4.13;;
8532;SDS011;4304;53.876;10.662;2023-09-08T06:51:48;7.80;;;3.63;;
8532;SDS011;4304;53.876;10.662;2023-09-08T06:54:14;7.97;;;3.60;;
8532;SDS011;4304;53.876;10.662;2023-09-08T06:56:39;7.68;;;4.10;;
8532;SDS011;4304;53.876;10.662;2023-09-08T06:59:04;8.23;;;4.07;;
8532;SDS011;4304;53.876;10.662;2023-09-08T07:01:30;9.20;;;4.22;;
8532;SDS011;4304;53.876;10.662;2023-09-08T07:03:55;9.10;;;3.88;;
8532;SDS011;4304;53.876;10.662;2023-09-08T07:06:21;6.80;;;3.83;;
8532;SDS011;4304;53.876;10.662;2023-09-08T07:08:49;6.72;;;4.05;;
8532;SDS011;4304;53.876;10.662;2023-09-08T07:11:15;6.50;;;4.00;;
8532;SDS011;4304;53.876;10.662;2023-09-08T07:13:41;8.40;;;3.83;;
8532;SDS011;4304;53.876;10.662;2023-09-08T07:16:06;6.95;;;3.72;;
8532;SDS011;4304;53.876;10.662;2023-09-08T07:18:31;7.07;;;3.90;;
8532;SDS011;4304;53.876;10.662;2023-09-08T07:21:00;7.45;;;3.95;;
8532;SDS011;4304;53.876;10.662;2023-09-08T07:23:26;7.28;;;3.65;;
8532;SDS011;4304;53.876;10.662;2023-09-08T07:25:51;7.13;;;3.90;;
8532;SDS011;4304;53.876;10.662;2023-09-08T07:28:17;7.90;;;3.38;;
8532;SDS011;4304;53.876;10.662;2023-09-08T07:30:42;7.10;;;3.63;;
8532;SDS011;4304;53.876;10.662;2023-09-08T07:33:08;7.43;;;3.92;;
8532;SDS011;4304;53.876;10.662;2023-09-08T07:35:36;7.18;;;3.80;;
8532;SDS011;4304;53.876;10.662;2023-09-08T07:38:02;6.93;;;3.85;;
8532;SDS011;4304;53.876;10.662;2023-09-08T07:40:28;6.90;;;4.00;;
8532;SDS011;4304;53.876;10.662;2023-09-08T07:42:53;6.13;;;3.70;;
8532;SDS011;4304;53.876;10.662;2023-09-08T07:45:18;6.22;;;3.92;;
8532;SDS011;4304;53.876;10.662;2023-09-08T07:47:44;8.80;;;4.03;;
8532;SDS011;4304;53.876;10.662;2023-09-08T07:50:23;9.50;;;4.50;;
8532;SDS011;4304;53.876;10.662;2023-09-08T07:52:50;7.15;;;4.25;;
8532;SDS011;4304;53.876;10.662;2023-09-08T07:55:16;6.60;;;4.07;;
8532;SDS011;4304;53.876;10.662;2023-09-08T07:57:42;6.43;;;3.55;;
8532;SDS011;4304;53.876;10.662;2023-09-08T08:00:09;7.90;;;4.35;;
8532;SDS011;4304;53.876;10.662;2023-09-08T08:02:36;6.75;;;3.85;;
8532;SDS011;4304;53.876;10.662;2023-09-08T08:05:01;6.18;;;3.85;;
8532;SDS011;4304;53.876;10.662;2023-09-08T08:07:27;6.63;;;3.58;;
8532;SDS011;4304;53.876;10.662;2023-09-08T08:09:52;6.20;;;4.10;;
8532;SDS011;4304;53.876;10.662;2023-09-08T08:12:19;7.72;;;4.28;;
8532;SDS011;4304;53.876;10.662;2023-09-08T08:14:44;7.90;;;3.85;;
8532;SDS011;4304;53.876;10.662;2023-09-08T08:17:09;10.13;;;4.00;;
8532;SDS011;4304;53.876;10.662;2023-09-08T08:19:36;7.93;;;3.53;;
8532;SDS011;4304;53.876;10.662;2023-09-08T08:22:01;5.60;;;3.65;;
8532;SDS011;4304;53.876;10.662;2023-09-08T08:24:27;8.20;;;3.75;;
8532;SDS011;4304;53.876;10.662;2023-09-08T08:26:52;7.38;;;4.28;;
8532;SDS011;4304;53.876;10.662;2023-09-08T08:29:17;5.55;;;3.60;;
8532;SDS011;4304;53.876;10.662;2023-09-08T08:31:43;5.82;;;3.70;;
8532;SDS011;4304;53.876;10.662;2023-09-08T08:34:08;8.93;;;3.95;;
8532;SDS011;4304;53.876;10.662;2023-09-08T08:36:34;7.38;;;3.67;;
8532;SDS011;4304;53.876;10.662;2023-09-08T08:38:59;5.90;;;3.22;;
8532;SDS011;4304;53.876;10.662;2023-09-08T08:41:25;7.53;;;3.75;;
8532;SDS011;4304;53.876;10.662;2023-09-08T08:43:51;6.15;;;3.40;;
8532;SDS011;4304;53.876;10.662;2023-09-08T08:46:16;6.85;;;4.32;;
8532;SDS011;4304;53.876;10.662;2023-09-08T08:48:43;6.68;;;3.80;;
8532;SDS011;4304;53.876;10.662;2023-09-08T08:51:10;7.68;;;3.53;;
8532;SDS011;4304;53.876;10.662;2023-09-08T08:53:36;6.53;;;3.33;;
8532;SDS011;4304;53.876;10.662;2023-09-08T08:56:04;5.97;;;3.38;;
8532;SDS011;4304;53.876;10.662;2023-09-08T08:58:33;5.72;;;3.75;;
8532;SDS011;4304;53.876;10.662;2023-09-08T09:01:00;5.60;;;3.38;;
8532;SDS011;4304;53.876;10.662;2023-09-08T09:03:26;6.03;;;3.67;;
8532;SDS011;4304;53.876;10.662;2023-09-08T09:05:53;5.95;;;3.20;;
8532;SDS011;4304;53.876;10.662;2023-09-08T09:08:18;8.27;;;3.75;;
8532;SDS011;4304;53.876;10.662;2023-09-08T09:10:44;6.15;;;3.13;;
8532;SDS011;4304;53.876;10.662;2023-09-08T09:13:10;5.82;;;3.28;;
8532;SDS011;4304;53.876;10.662;2023-09-08T09:15:35;6.80;;;3.45;;
8532;SDS011;4304;53.876;10.662;2023-09-08T09:18:04;7.47;;;3.53;;
8532;SDS011;4304;53.876;10.662;2023-09-08T09:20:31;4.28;;;2.58;;
8532;SDS011;4304;53.876;10.662;2023-09-08T09:22:57;9.50;;;3.38;;
8532;SDS011;4304;53.876;10.662;2023-09-08T09:25:23;11.85;;;3.35;;
8532;SDS011;4304;53.876;10.662;2023-09-08T09:27:53;6.38;;;3.67;;
8532;SDS011;4304;53.876;10.662;2023-09-08T09:30:19;5.85;;;3.17;;
8532;SDS011;4304;53.876;10.662;2023-09-08T09:32:44;6.15;;;3.10;;
8532;SDS011;4304;53.876;10.662;2023-09-08T09:35:10;4.93;;;2.78;;
8532;SDS011;4304;53.876;10.662;2023-09-08T09:37:35;5.97;;;3.63;;
8532;SDS011;4304;53.876;10.662;2023-09-08T09:40:01;6.47;;;2.83;;
8532;SDS011;4304;53.876;10.662;2023-09-08T09:42:27;6.63;;;2.92;;
8532;SDS011;4304;53.876;10.662;2023-09-08T09:44:53;5.65;;;2.97;;
8532;SDS011;4304;53.876;10.662;2023-09-08T09:47:19;5.63;;;3.03;;
8532;SDS011;4304;53.876;10.662;2023-09-08T09:49:45;6.50;;;2.78;;
8532;SDS011;4304;53.876;10.662;2023-09-08T09:52:12;10.27;;;3.40;;
8532;SDS011;4304;53.876;10.662;2023-09-08T09:54:45;6.63;;;3.40;;
8532;SDS011;4304;53.876;10.662;2023-09-08T09:57:14;8.40;;;2.78;;
8532;SDS011;4304;53.876;10.662;2023-09-08T09:59:40;5.00;;;2.85;;
8532;SDS011;4304;53.876;10.662;2023-09-08T10:02:12;6.07;;;2.88;;
8532;SDS011;4304;53.876;10.662;2023-09-08T10:04:42;4.50;;;2.63;;
8532;SDS011;4304;53.876;10.662;2023-09-08T10:07:08;5.80;;;2.92;;
8532;SDS011;4304;53.876;10.662;2023-09-08T10:09:35;5.55;;;2.50;;
8532;SDS011;4304;53.876;10.662;2023-09-08T10:12:04;6.20;;;2.70;;
8532;SDS011;4304;53.876;10.662;2023-09-08T10:14:31;11.02;;;2.88;;
8532;SDS011;4304;53.876;10.662;2023-09-08T10:16:59;4.32;;;2.30;;
8532;SDS011;4304;53.876;10.662;2023-09-08T10:19:25;5.25;;;2.72;;
8532;SDS011;4304;53.876;10.662;2023-09-08T10:21:51;5.25;;;2.40;;
8532;SDS011;4304;53.876;10.662;2023-09-08T10:24:29;8.25;;;3.30;;
8532;SDS011;4304;53.876;10.662;2023-09-08T10:27:20;5.28;;;2.47;;
8532;SDS011;4304;53.876;10.662;2023-09-08T10:29:46;5.60;;;2.42;;
8532;SDS011;4304;53.876;10.662;2023-09-08T10:32:12;5.10;;;2.63;;
8532;SDS011;4304;53.876;10.662;2023-09-08T10:34:38;5.82;;;2.67;;
8532;SDS011;4304;53.876;10.662;2023-09-08T10:37:18;7.13;;;2.38;;
8532;SDS011;4304;53.876;10.662;2023-09-08T10:39:47;18.08;;;6.78;;
8532;SDS011;4304;53.876;10.662;2023-09-08T10:47:12;5.77;;;2.73;;
8532;SDS011;4304;53.876;10.662;2023-09-08T10:49:38;5.35;;;2.58;;
8532;SDS011;4304;53.876;10.662;2023-09-08T10:52:10;5.60;;;2.78;;
8532;SDS011;4304;53.876;10.662;2023-09-08T10:54:40;4.88;;;2.22;;
8532;SDS011;4304;53.876;10.662;2023-09-08T10:57:27;5.05;;;2.20;;
8532;SDS011;4304;53.876;10.662;2023-09-08T11:02:35;4.85;;;2.70;;
8532;SDS011;4304;53.876;10.662;2023-09-08T11:05:07;4.28;;;2.55;;
8532;SDS011;4304;53.876;10.662;2023-09-08T11:07:35;6.00;;;2.70;;
8532;SDS011;4304;53.876;10.662;2023-09-08T11:10:01;6.28;;;2.13;;
8532;SDS011;4304;53.876;10.662;2023-09-08T11:12:28;4.05;;;2.22;;
8532;SDS011;4304;53.876;10.662;2023-09-08T11:14:54;5.00;;;2.35;;
8532;SDS011;4304;53.876;10.662;2023-09-08T11:17:19;6.32;;;2.67;;
8532;SDS011;4304;53.876;10.662;2023-09-08T11:19:46;4.68;;;2.60;;
8532;SDS011;4304;53.876;10.662;2023-09-08T11:22:12;5.47;;;2.90;;
8532;SDS011;4304;53.876;10.662;2023-09-08T11:24:38;5.50;;;2.95;;
8532;SDS011;4304;53.876;10.662;2023-09-08T11:27:06;4.60;;;2.40;;
8532;SDS011;4304;53.876;10.662;2023-09-08T11:29:31;6.90;;;2.72;;
8532;SDS011;4304;53.876;10.662;2023-09-08T11:31:57;4.57;;;2.40;;
8532;SDS011;4304;53.876;10.662;2023-09-08T11:34:23;5.82;;;2.58;;
8532;SDS011;4304;53.876;10.662;2023-09-08T11:36:48;3.80;;;2.15;;
8532;SDS011;4304;53.876;10.662;2023-09-08T11:39:14;7.43;;;3.00;;
8532;SDS011;4304;53.876;10.662;2023-09-08T11:41:40;5.40;;;2.67;;
8532;SDS011;4304;53.876;10.662;2023-09-08T11:44:06;5.70;;;2.65;;
8532;SDS011;4304;53.876;10.662;2023-09-08T11:46:31;7.22;;;2.80;;
8532;SDS011;4304;53.876;10.662;2023-09-08T11:48:57;4.72;;;2.58;;
8532;SDS011;4304;53.876;10.662;2023-09-08T11:51:23;4.90;;;2.53;;
8532;SDS011;4304;53.876;10.662;2023-09-08T11:53:48;5.53;;;2.50;;
8532;SDS011;4304;53.876;10.662;2023-09-08T11:56:14;3.95;;;2.17;;
8532;SDS011;4304;53.876;10.662;2023-09-08T11:58:40;4.20;;;2.33;;
8532;SDS011;4304;53.876;10.662;2023-09-08T12:01:06;4.90;;;2.40;;
8532;SDS011;4304;53.876;10.662;2023-09-08T12:03:32;5.45;;;2.30;;
8532;SDS011;4304;53.876;10.662;2023-09-08T12:05:57;6.18;;;2.53;;
8532;SDS011;4304;53.876;10.662;2023-09-08T12:08:24;5.28;;;2.75;;
8532;SDS011;4304;53.876;10.662;2023-09-08T12:10:53;5.75;;;2.67;;
8532;SDS011;4304;53.876;10.662;2023-09-08T12:13:24;5.25;;;2.58;;
8532;SDS011;4304;53.876;10.662;2023-09-08T12:15:50;4.03;;;2.08;;
8532;SDS011;4304;53.876;10.662;2023-09-08T12:18:15;5.32;;;2.50;;
8532;SDS011;4304;53.876;10.662;2023-09-08T12:20:41;4.28;;;2.65;;
8532;SDS011;4304;53.876;10.662;2023-09-08T12:23:15;4.82;;;2.75;;
8532;SDS011;4304;53.876;10.662;2023-09-08T12:25:47;5.63;;;2.60;;
8532;SDS011;4304;53.876;10.662;2023-09-08T12:28:15;3.95;;;2.47;;
8532;SDS011;4304;53.876;10.662;2023-09-08T12:30:41;4.22;;;2.35;;
8532;SDS011;4304;53.876;10.662;2023-09-08T12:33:08;5.40;;;2.55;;
8532;SDS011;4304;53.876;10.662;2023-09-08T12:35:34;4.22;;;2.47;;
8532;SDS011;4304;53.876;10.662;2023-09-08T12:38:00;8.98;;;2.85;;
8532;SDS011;4304;53.876;10.662;2023-09-08T12:40:32;5.45;;;2.60;;
8532;SDS011;4304;53.876;10.662;2023-09-08T12:43:00;4.78;;;2.88;;
8532;SDS011;4304;53.876;10.662;2023-09-08T12:45:26;6.43;;;2.55;;
8532;SDS011;4304;53.876;10.662;2023-09-08T12:47:52;4.30;;;2.67;;
8532;SDS011;4304;53.876;10.662;2023-09-08T12:50:20;4.78;;;2.20;;
8532;SDS011;4304;53.876;10.662;2023-09-08T12:52:45;7.15;;;2.72;;
8532;SDS011;4304;53.876;10.662;2023-09-08T12:55:11;5.30;;;2.55;;
8532;SDS011;4304;53.876;10.662;2023-09-08T12:57:36;5.20;;;2.70;;
8532;SDS011;4304;53.876;10.662;2023-09-08T13:00:02;3.88;;;2.03;;
8532;SDS011;4304;53.876;10.662;2023-09-08T13:02:29;4.53;;;2.42;;
8532;SDS011;4304;53.876;10.662;2023-09-08T13:04:54;4.57;;;2.33;;
8532;SDS011;4304;53.876;10.662;2023-09-08T13:07:20;4.97;;;2.70;;
8532;SDS011;4304;53.876;10.662;2023-09-08T13:09:45;5.35;;;2.58;;
8532;SDS011;4304;53.876;10.662;2023-09-08T13:12:11;4.63;;;2.63;;
8532;SDS011;4304;53.876;10.662;2023-09-08T13:14:38;6.95;;;3.05;;
8532;SDS011;4304;53.876;10.662;2023-09-08T13:17:04;4.35;;;2.40;;
8532;SDS011;4304;53.876;10.662;2023-09-08T13:19:29;4.22;;;2.15;;
8532;SDS011;4304;53.876;10.662;2023-09-08T13:21:55;7.35;;;2.72;;
8532;SDS011;4304;53.876;10.662;2023-09-08T13:24:20;5.97;;;2.90;;
8532;SDS011;4304;53.876;10.662;2023-09-08T13:26:47;6.05;;;3.20;;
8532;SDS011;4304;53.876;10.662;2023-09-08T13:29:12;7.45;;;2.70;;
8532;SDS011;4304;53.876;10.662;2023-09-08T13:31:38;5.20;;;2.50;;
8532;SDS011;4304;53.876;10.662;2023-09-08T13:34:03;6.85;;;2.65;;
8532;SDS011;4304;53.876;10.662;2023-09-08T13:36:28;8.68;;;2.58;;
8532;SDS011;4304;53.876;10.662;2023-09-08T13:38:54;5.53;;;2.53;;
8532;SDS011;4304;53.876;10.662;2023-09-08T13:41:19;7.65;;;2.47;;
8532;SDS011;4304;53.876;10.662;2023-09-08T13:43:44;4.30;;;2.05;;
8532;SDS011;4304;53.876;10.662;2023-09-08T13:46:10;3.97;;;1.67;;
8532;SDS011;4304;53.876;10.662;2023-09-08T13:48:35;4.72;;;2.38;;
8532;SDS011;4304;53.876;10.662;2023-09-08T13:51:01;4.30;;;2.38;;
8532;SDS011;4304;53.876;10.662;2023-09-08T13:53:29;4.35;;;2.17;;
8532;SDS011;4304;53.876;10.662;2023-09-08T13:56:01;4.93;;;2.50;;
8532;SDS011;4304;53.876;10.662;2023-09-08T13:58:27;5.68;;;2.15;;
8532;SDS011;4304;53.876;10.662;2023-09-08T14:00:52;6.60;;;2.95;;
8532;SDS011;4304;53.876;10.662;2023-09-08T14:03:18;5.20;;;2.70;;
8532;SDS011;4304;53.876;10.662;2023-09-08T14:05:43;5.07;;;2.45;;
8532;SDS011;4304;53.876;10.662;2023-09-08T14:08:09;4.40;;;2.38;;
8532;SDS011;4304;53.876;10.662;2023-09-08T14:10:35;4.65;;;2.33;;
8532;SDS011;4304;53.876;10.662;2023-09-08T14:13:00;4.22;;;2.45;;
8532;SDS011;4304;53.876;10.662;2023-09-08T14:15:26;6.15;;;2.42;;
8532;SDS011;4304;53.876;10.662;2023-09-08T14:17:51;3.73;;;2.00;;
8532;SDS011;4304;53.876;10.662;2023-09-08T14:20:17;5.07;;;2.33;;
8532;SDS011;4304;53.876;10.662;2023-09-08T14:22:43;4.68;;;2.13;;
8532;SDS011;4304;53.876;10.662;2023-09-08T14:25:08;7.20;;;2.60;;
8532;SDS011;4304;53.876;10.662;2023-09-08T14:27:34;3.17;;;1.92;;
8532;SDS011;4304;53.876;10.662;2023-09-08T14:30:00;4.85;;;2.60;;
8532;SDS011;4304;53.876;10.662;2023-09-08T14:32:26;6.03;;;2.10;;
8532;SDS011;4304;53.876;10.662;2023-09-08T14:34:51;4.10;;;2.35;;
8532;SDS011;4304;53.876;10.662;2023-09-08T14:37:17;4.85;;;2.45;;
8532;SDS011;4304;53.876;10.662;2023-09-08T14:39:42;4.15;;;2.22;;
8532;SDS011;4304;53.876;10.662;2023-09-08T14:42:07;5.05;;;1.95;;
8532;SDS011;4304;53.876;10.662;2023-09-08T14:44:34;8.18;;;2.17;;
8532;SDS011;4304;53.876;10.662;2023-09-08T14:47:00;4.72;;;2.53;;
8532;SDS011;4304;53.876;10.662;2023-09-08T14:49:25;6.07;;;2.63;;
8532;SDS011;4304;53.876;10.662;2023-09-08T14:51:50;5.28;;;1.98;;
8532;SDS011;4304;53.876;10.662;2023-09-08T14:54:15;3.30;;;1.60;;
8532;SDS011;4304;53.876;10.662;2023-09-08T14:56:41;8.15;;;2.65;;
8532;SDS011;4304;53.876;10.662;2023-09-08T14:59:07;5.30;;;2.30;;
8532;SDS011;4304;53.876;10.662;2023-09-08T15:01:33;5.10;;;2.30;;
8532;SDS011;4304;53.876;10.662;2023-09-08T15:03:58;3.13;;;1.70;;